createdAt,value
2022-08-17T00:01:52.316Z,19.32
2022-08-17T00:04:20.361Z,19.29
2022-08-17T00:06:49.171Z,19.35
2022-08-17T00:09:19.005Z,19.28
2022-08-17T00:12:35.041Z,19.27
2022-08-17T00:14:36.086Z,19.33
2022-08-17T00:17:04.839Z,19.35
2022-08-17T00:19:32.723Z,19.30
2022-08-17T00:22:32.410Z,19.25
2022-08-17T00:24:49.870Z,19.24
2022-08-17T00:27:16.744Z,19.19
2022-08-17T00:29:45.944Z,19.21
2022-08-17T00:33:12.321Z,19.14
2022-08-17T00:35:05.900Z,19.16
2022-08-17T00:37:32.628Z,19.06
2022-08-17T00:39:59.541Z,19.04
2022-08-17T00:42:30.792Z,19.10
2022-08-17T00:44:58.155Z,19.04
2022-08-17T00:47:24.825Z,19.08
2022-08-17T00:49:51.820Z,19.11
2022-08-17T00:52:23.127Z,19.04
2022-08-17T00:54:54.029Z,19.01
2022-08-17T00:57:31.068Z,19.00
2022-08-17T01:00:03.769Z,19.02
2022-08-17T01:02:42.540Z,19.04
2022-08-17T01:05:19.026Z,18.86
2022-08-17T01:07:47.948Z,18.67
2022-08-17T01:11:00.477Z,18.63
2022-08-17T01:13:04.312Z,18.61
2022-08-17T01:15:35.192Z,18.60
2022-08-17T01:18:01.940Z,18.59
2022-08-17T01:20:28.674Z,18.54
2022-08-17T01:22:55.546Z,18.39
2022-08-17T01:25:22.575Z,18.42
2022-08-17T01:27:49.888Z,18.49
2022-08-17T01:30:58.300Z,18.50
2022-08-17T01:33:04.453Z,18.50
2022-08-17T01:35:31.550Z,18.54
2022-08-17T01:37:58.199Z,18.48
2022-08-17T01:40:32.937Z,18.53
2022-08-17T01:43:05.946Z,18.48
2022-08-17T01:45:39.190Z,18.48
2022-08-17T01:48:05.974Z,18.50
2022-08-17T01:50:37.903Z,18.56
2022-08-17T01:53:11.468Z,18.56
2022-08-17T01:55:47.227Z,18.49
2022-08-17T01:58:13.913Z,18.29
2022-08-17T02:00:46.769Z,18.33
2022-08-17T02:03:27.122Z,18.40
2022-08-17T02:05:53.797Z,18.48
2022-08-17T02:08:37.298Z,18.50
2022-08-17T02:11:12.149Z,18.45
2022-08-17T02:13:39.235Z,18.52
2022-08-17T02:16:06.085Z,18.54
2022-08-17T02:18:33.092Z,18.42
2022-08-17T02:20:59.906Z,18.40
2022-08-17T02:23:30.241Z,18.40
2022-08-17T02:25:59.304Z,18.40
2022-08-17T02:28:26.621Z,18.31
2022-08-17T02:31:02.095Z,18.34
2022-08-17T02:33:42.270Z,18.26
2022-08-17T02:36:12.729Z,18.25
2022-08-17T02:38:40.708Z,18.20
2022-08-17T02:41:08.441Z,18.21
2022-08-17T02:43:35.511Z,18.24
2022-08-17T02:46:02.162Z,18.16
2022-08-17T02:48:31.207Z,18.18
2022-08-17T02:50:59.841Z,18.08
2022-08-17T02:53:27.390Z,17.91
2022-08-17T02:55:58.583Z,17.90
2022-08-17T02:58:34.786Z,18.01
2022-08-17T03:01:07.349Z,17.87
2022-08-17T03:03:34.831Z,17.86
2022-08-17T03:06:02.258Z,17.77
2022-08-17T03:08:29.723Z,17.72
2022-08-17T03:10:57.343Z,17.69
2022-08-17T03:13:24.249Z,17.71
2022-08-17T03:15:51.010Z,17.68
2022-08-17T03:18:25.141Z,17.70
2022-08-17T03:20:58.455Z,17.68
2022-08-17T03:23:25.870Z,17.80
2022-08-17T03:25:55.061Z,17.76
2022-08-17T03:28:23.347Z,17.65
2022-08-17T03:30:51.309Z,17.59
2022-08-17T03:33:19.013Z,17.60
2022-08-17T03:35:46.065Z,17.57
2022-08-17T03:38:15.860Z,17.59
2022-08-17T03:40:58.058Z,17.56
2022-08-17T03:43:31.217Z,17.61
2022-08-17T03:46:26.917Z,17.60
2022-08-17T03:49:14.407Z,17.59
2022-08-17T03:51:59.587Z,17.64
2022-08-17T03:54:44.857Z,17.56
2022-08-17T03:57:12.303Z,17.59
2022-08-17T03:59:39.665Z,17.64
2022-08-17T04:02:23.338Z,17.65
2022-08-17T04:04:51.135Z,17.62
2022-08-17T04:07:24.561Z,17.69
2022-08-17T04:09:51.261Z,17.66
2022-08-17T04:12:21.123Z,17.58
2022-08-17T04:14:53.445Z,17.64
2022-08-17T04:17:26.393Z,17.64
2022-08-17T04:19:55.138Z,17.70
2022-08-17T04:22:33.203Z,17.62
2022-08-17T04:25:18.354Z,17.66
2022-08-17T04:27:44.952Z,17.64
2022-08-17T04:30:12.181Z,17.73
2022-08-17T04:33:19.161Z,17.58
2022-08-17T04:35:46.097Z,17.71
2022-08-17T04:38:17.601Z,17.69
2022-08-17T04:41:03.533Z,17.84
2022-08-17T04:43:32.777Z,17.87
2022-08-17T04:46:02.417Z,17.83
2022-08-17T04:48:36.522Z,17.87
2022-08-17T04:51:13.896Z,17.93
2022-08-17T04:53:42.866Z,17.94
2022-08-17T04:56:16.036Z,17.93
2022-08-17T04:58:50.073Z,18.06
2022-08-17T05:01:23.433Z,18.05
2022-08-17T05:03:51.151Z,18.09
2022-08-17T05:06:17.764Z,18.12
2022-08-17T05:08:44.380Z,18.17
2022-08-17T05:11:11.026Z,18.11
2022-08-17T05:13:37.620Z,18.31
2022-08-17T05:16:05.029Z,18.26
2022-08-17T05:18:32.495Z,18.35
2022-08-17T05:20:59.200Z,18.37
2022-08-17T05:23:35.553Z,18.40
2022-08-17T05:26:25.495Z,18.45
2022-08-17T05:28:58.518Z,18.58
2022-08-17T05:31:29.490Z,18.70
2022-08-17T05:33:56.473Z,18.66
2022-08-17T05:36:41.623Z,18.83
2022-08-17T05:39:15.868Z,18.82
2022-08-17T05:41:43.361Z,18.99
2022-08-17T05:44:10.773Z,19.05
2022-08-17T05:46:42.587Z,19.01
2022-08-17T05:49:11.047Z,19.22
2022-08-17T05:51:56.362Z,19.33
2022-08-17T05:54:31.779Z,19.82
2022-08-17T05:57:03.637Z,20.72
2022-08-17T05:59:44.808Z,22.10
2022-08-17T06:02:47.067Z,23.21
2022-08-17T06:05:45.455Z,24.01
2022-08-17T06:08:12.016Z,24.84
2022-08-17T06:11:03.007Z,25.88
2022-08-17T06:13:48.268Z,26.09
2022-08-17T06:16:33.341Z,25.87
2022-08-17T06:19:23.034Z,25.86
2022-08-17T06:21:53.683Z,26.54
2022-08-17T06:24:29.215Z,27.25
2022-08-17T06:27:10.242Z,27.40
2022-08-17T06:29:46.056Z,27.48
2022-08-17T06:32:13.579Z,27.02
2022-08-17T06:34:41.639Z,27.80
2022-08-17T06:37:15.388Z,29.02
2022-08-17T06:39:53.874Z,29.19
2022-08-17T06:42:54.813Z,29.73
2022-08-17T06:45:34.798Z,30.13
2022-08-17T06:48:15.414Z,31.08
2022-08-17T06:50:53.482Z,31.32
2022-08-17T06:53:25.835Z,31.46
2022-08-17T06:55:55.104Z,30.51
2022-08-17T06:58:29.854Z,29.61
2022-08-17T07:01:01.028Z,29.57
2022-08-17T07:04:11.466Z,28.81
2022-08-17T07:06:42.974Z,29.90
2022-08-17T07:09:35.898Z,30.53
2022-08-17T07:12:04.666Z,30.39
2022-08-17T07:14:37.044Z,30.26
2022-08-17T07:17:13.482Z,30.24
2022-08-17T07:19:44.095Z,29.89
2022-08-17T07:22:53.582Z,30.71
2022-08-17T07:25:26.256Z,30.42
2022-08-17T07:27:57.431Z,30.77
2022-08-17T07:30:27.980Z,29.78
2022-08-17T07:33:08.348Z,29.06
2022-08-17T07:35:44.278Z,28.66
2022-08-17T07:38:30.623Z,28.42
2022-08-17T07:40:57.787Z,29.14
2022-08-17T07:43:29.632Z,28.72
2022-08-17T07:46:16.288Z,28.82
2022-08-17T07:48:46.486Z,28.26
2022-08-17T07:51:42.197Z,28.17
2022-08-17T07:54:19.532Z,28.74
2022-08-17T07:56:48.076Z,28.84
2022-08-17T07:59:18.070Z,28.57
2022-08-17T08:01:58.842Z,28.87
2022-08-17T08:07:20.573Z,28.76
2022-08-17T08:10:11.124Z,28.21
2022-08-17T08:12:48.034Z,28.43
2022-08-17T08:15:20.447Z,28.05
2022-08-17T08:18:03.000Z,27.92
2022-08-17T08:20:53.312Z,28.05
2022-08-17T08:23:33.712Z,28.45
2022-08-17T08:26:26.497Z,29.02
2022-08-17T08:29:18.425Z,29.05
2022-08-17T08:32:22.532Z,29.42
2022-08-17T08:35:07.397Z,29.22
2022-08-17T08:37:58.346Z,29.23
2022-08-17T08:40:33.679Z,29.06
2022-08-17T08:43:22.661Z,29.24
2022-08-17T08:46:19.692Z,29.31
2022-08-17T08:48:58.673Z,29.38
2022-08-17T08:51:55.619Z,29.52
2022-08-17T08:54:37.250Z,29.65
2022-08-17T08:57:26.822Z,29.50
2022-08-17T09:00:13.326Z,29.53
2022-08-17T09:03:17.487Z,29.70
2022-08-17T09:06:33.615Z,29.54
2022-08-17T09:09:45.392Z,29.38
2022-08-17T09:12:25.408Z,29.42
2022-08-17T09:15:01.441Z,29.58
2022-08-17T09:17:40.132Z,29.41
2022-08-17T09:20:27.916Z,29.55
2022-08-17T09:23:07.146Z,29.38
2022-08-17T09:25:54.909Z,29.52
2022-08-17T09:28:37.305Z,29.59
2022-08-17T09:31:11.644Z,29.68
2022-08-17T09:33:45.436Z,29.71
2022-08-17T09:36:19.140Z,29.91
2022-08-17T09:39:27.756Z,30.00
2022-08-17T09:42:05.009Z,30.07
2022-08-17T09:45:12.828Z,30.03
2022-08-17T09:47:56.246Z,29.92
2022-08-17T09:51:04.456Z,29.59
2022-08-17T09:53:22.286Z,29.71
2022-08-17T09:56:26.497Z,29.82
2022-08-17T09:59:13.967Z,29.49
2022-08-17T10:01:51.952Z,29.72
2022-08-17T10:04:49.984Z,30.07
2022-08-17T10:07:19.616Z,30.12
2022-08-17T10:09:55.951Z,30.11
2022-08-17T10:12:47.011Z,30.22
2022-08-17T10:15:44.899Z,30.53
2022-08-17T10:18:49.133Z,30.44
2022-08-17T10:21:37.596Z,30.44
2022-08-17T10:24:33.263Z,30.74
2022-08-17T10:27:04.935Z,30.93
2022-08-17T10:29:50.015Z,30.94
2022-08-17T10:32:31.410Z,30.62
2022-08-17T10:35:30.236Z,30.60
2022-08-17T10:38:31.106Z,30.81
2022-08-17T10:41:15.853Z,30.79
2022-08-17T10:44:02.182Z,31.12
2022-08-17T10:46:40.278Z,30.74
2022-08-17T10:49:12.626Z,30.94
2022-08-17T10:51:42.015Z,31.02
2022-08-17T10:54:38.398Z,31.26
2022-08-17T10:57:27.481Z,31.26
2022-08-17T10:59:56.167Z,31.27
2022-08-17T11:02:31.631Z,31.27
2022-08-17T11:05:01.003Z,30.70
2022-08-17T11:08:08.105Z,30.49
2022-08-17T11:11:01.149Z,30.57
2022-08-17T11:13:52.637Z,30.73
2022-08-17T11:16:48.115Z,30.94
2022-08-17T11:19:24.910Z,31.15
2022-08-17T11:22:06.522Z,31.35
2022-08-17T11:24:39.145Z,31.37
2022-08-17T11:27:26.672Z,31.63
2022-08-17T11:30:02.160Z,31.97
2022-08-17T11:32:54.785Z,31.52
2022-08-17T11:35:21.865Z,31.47
2022-08-17T11:38:15.031Z,31.53
2022-08-17T11:40:52.234Z,31.50
2022-08-17T11:43:25.377Z,31.51
2022-08-17T11:46:02.217Z,31.28
2022-08-17T11:49:06.404Z,31.62
2022-08-17T11:52:01.327Z,32.05
2022-08-17T11:54:33.612Z,32.10
2022-08-17T11:57:26.555Z,31.96
2022-08-17T11:59:58.960Z,31.91
2022-08-17T12:02:31.640Z,31.98
2022-08-17T12:05:12.367Z,32.07
2022-08-17T12:08:05.516Z,32.23
2022-08-17T12:10:49.372Z,32.18
2022-08-17T12:13:18.453Z,32.41
2022-08-17T12:15:49.715Z,32.23
2022-08-17T12:18:46.499Z,32.31
2022-08-17T12:21:29.122Z,32.47
2022-08-17T12:24:10.314Z,32.67
2022-08-17T12:26:37.390Z,32.49
2022-08-17T12:29:18.327Z,32.44
2022-08-17T12:32:02.144Z,32.69
2022-08-17T12:34:36.594Z,32.40
2022-08-17T12:37:07.958Z,32.52
2022-08-17T12:39:34.879Z,32.84
2022-08-17T12:42:02.949Z,32.80
2022-08-17T12:44:36.226Z,32.69
2022-08-17T12:47:21.867Z,32.40
2022-08-17T12:49:52.273Z,32.21
2022-08-17T12:52:29.557Z,32.17
2022-08-17T12:55:12.341Z,32.22
2022-08-17T12:57:38.889Z,32.31
2022-08-17T13:00:22.041Z,32.31
2022-08-17T13:02:52.897Z,32.48
2022-08-17T13:05:29.964Z,32.74
2022-08-17T13:07:58.888Z,32.86
2022-08-17T13:10:33.136Z,32.85
2022-08-17T13:13:06.036Z,32.89
2022-08-17T13:15:44.730Z,32.78
2022-08-17T13:18:39.170Z,32.62
2022-08-17T13:21:23.864Z,32.47
2022-08-17T13:24:13.906Z,32.30
2022-08-17T13:27:08.069Z,32.12
2022-08-17T13:29:39.483Z,32.22
2022-08-17T13:32:12.950Z,32.39
2022-08-17T13:35:13.476Z,32.53
2022-08-17T13:37:42.633Z,32.64
2022-08-17T13:40:09.411Z,32.69
2022-08-17T13:42:48.092Z,32.39
2022-08-17T13:45:34.906Z,32.10
2022-08-17T13:48:08.850Z,32.03
2022-08-17T13:51:04.703Z,32.06
2022-08-17T13:53:47.614Z,32.12
2022-08-17T13:56:33.404Z,32.20
2022-08-17T13:59:12.515Z,32.16
2022-08-17T14:01:41.990Z,32.34
2022-08-17T14:04:14.894Z,32.42
2022-08-17T14:07:21.558Z,32.43
2022-08-17T14:09:50.601Z,32.48
2022-08-17T14:12:21.716Z,32.58
2022-08-17T14:14:49.666Z,32.71
2022-08-17T14:17:16.587Z,32.86
2022-08-17T14:19:43.256Z,32.95
2022-08-17T14:22:19.532Z,33.09
2022-08-17T14:24:46.424Z,33.18
2022-08-17T14:27:13.057Z,33.31
2022-08-17T14:29:41.275Z,33.24
2022-08-17T14:32:18.429Z,33.27
2022-08-17T14:34:46.141Z,33.17
2022-08-17T14:37:13.327Z,32.66
2022-08-17T14:39:40.199Z,32.63
2022-08-17T14:42:07.086Z,32.60
2022-08-17T14:44:33.870Z,32.56
2022-08-17T14:47:01.690Z,32.48
2022-08-17T14:49:30.296Z,32.46
2022-08-17T14:51:57.445Z,32.40
2022-08-17T14:54:33.525Z,32.30
2022-08-17T14:57:22.184Z,32.11
2022-08-17T14:59:53.386Z,31.98
2022-08-17T15:02:29.347Z,31.96
2022-08-17T15:05:04.161Z,32.09
2022-08-17T15:07:31.495Z,32.13
2022-08-17T15:10:02.355Z,32.10
2022-08-17T15:12:33.257Z,32.07
2022-08-17T15:15:01.890Z,32.24
2022-08-17T15:17:44.677Z,32.15
2022-08-17T15:20:28.097Z,32.11
2022-08-17T15:22:56.288Z,32.11
2022-08-17T15:25:28.802Z,32.24
2022-08-17T15:27:56.144Z,32.22
2022-08-17T15:30:24.243Z,32.27
2022-08-17T15:32:55.005Z,32.25
2022-08-17T15:35:28.752Z,32.14
2022-08-17T15:37:58.012Z,32.05
2022-08-17T15:40:25.162Z,31.94
2022-08-17T15:42:52.007Z,31.97
2022-08-17T15:45:24.634Z,31.99
2022-08-17T15:47:52.557Z,32.00
2022-08-17T15:50:19.609Z,31.97
2022-08-17T15:52:47.571Z,32.19
2022-08-17T15:55:15.421Z,32.25
2022-08-17T15:57:42.132Z,32.30
2022-08-17T16:00:10.110Z,32.18
2022-08-17T16:03:44.586Z,32.13
2022-08-17T16:05:28.177Z,31.83
2022-08-17T16:07:57.755Z,31.79
2022-08-17T16:10:35.151Z,31.79
2022-08-17T16:13:03.868Z,31.83
2022-08-17T16:15:31.789Z,31.84
2022-08-17T16:17:58.802Z,31.82
2022-08-17T16:20:25.528Z,31.59
2022-08-17T16:22:52.367Z,31.50
2022-08-17T16:25:21.970Z,31.38
2022-08-17T16:27:53.523Z,31.35
2022-08-17T16:30:23.203Z,31.36
2022-08-17T16:32:53.936Z,31.27
2022-08-17T16:35:22.673Z,31.25
2022-08-17T16:37:49.327Z,31.11
2022-08-17T16:40:17.369Z,31.07
2022-08-17T16:42:45.952Z,31.01
2022-08-17T16:45:16.995Z,31.08
2022-08-17T16:47:44.573Z,31.02
2022-08-17T16:50:14.104Z,31.01
2022-08-17T16:52:41.695Z,30.96
2022-08-17T16:55:13.363Z,30.98
2022-08-17T16:57:47.566Z,30.94
2022-08-17T17:00:19.297Z,30.88
2022-08-17T17:02:49.494Z,30.82
2022-08-17T17:05:38.194Z,30.69
2022-08-17T17:08:12.641Z,30.63
2022-08-17T17:10:50.785Z,30.54
2022-08-17T17:13:54.613Z,30.50
2022-08-17T17:16:34.361Z,30.39
2022-08-17T17:19:13.014Z,30.34
2022-08-17T17:22:05.058Z,30.23
2022-08-17T17:24:41.920Z,30.19
2022-08-17T17:27:14.295Z,30.10
2022-08-17T17:30:07.604Z,29.98
2022-08-17T17:32:40.776Z,29.91
2022-08-17T17:35:19.011Z,29.88
2022-08-17T17:37:46.865Z,29.80
2022-08-17T17:40:20.476Z,29.64
2022-08-17T17:42:50.387Z,29.55
2022-08-17T17:45:23.905Z,29.50
2022-08-17T17:47:50.921Z,29.35
2022-08-17T17:50:33.170Z,29.25
2022-08-17T17:53:05.266Z,29.15
2022-08-17T17:55:46.514Z,29.04
2022-08-17T17:58:21.408Z,28.93
2022-08-17T18:01:09.540Z,28.88
2022-08-17T18:03:54.953Z,28.81
2022-08-17T18:06:24.190Z,28.78
2022-08-17T18:08:59.509Z,28.69
2022-08-17T18:11:54.852Z,28.56
2022-08-17T18:14:55.562Z,28.43
2022-08-17T18:17:22.290Z,28.30
2022-08-17T18:19:49.040Z,28.14
2022-08-17T18:22:22.149Z,28.11
2022-08-17T18:24:56.078Z,28.04
2022-08-17T18:27:32.177Z,28.01
2022-08-17T18:30:07.157Z,28.00
2022-08-17T18:32:41.470Z,27.99
2022-08-17T18:35:08.008Z,27.99
2022-08-17T18:37:46.039Z,27.94
2022-08-17T18:40:21.576Z,27.92
2022-08-17T18:42:57.110Z,27.92
2022-08-17T18:45:39.607Z,27.79
2022-08-17T18:48:19.266Z,27.68
2022-08-17T18:50:46.138Z,27.56
2022-08-17T18:53:34.544Z,27.50
2022-08-17T18:56:23.267Z,27.39
2022-08-17T18:59:04.594Z,27.32
2022-08-17T19:01:59.869Z,27.21
2022-08-17T19:04:33.877Z,27.08
2022-08-17T19:07:19.343Z,26.97
2022-08-17T19:09:48.917Z,26.87
2022-08-17T19:12:49.164Z,26.70
2022-08-17T19:15:22.623Z,26.66
2022-08-17T19:18:03.203Z,26.59
2022-08-17T19:20:36.002Z,26.55
2022-08-17T19:23:11.596Z,26.41
2022-08-17T19:25:46.643Z,26.32
2022-08-17T19:28:23.074Z,26.29
2022-08-17T19:30:58.712Z,26.25
2022-08-17T19:33:26.003Z,26.09
2022-08-17T19:36:21.533Z,26.05
2022-08-17T19:39:09.721Z,25.91
2022-08-17T19:41:58.248Z,25.86
2022-08-17T19:44:53.108Z,25.78
2022-08-17T19:47:53.778Z,25.73
2022-08-17T19:50:30.676Z,25.66
2022-08-17T19:53:27.721Z,25.58
2022-08-17T19:56:16.397Z,25.44
2022-08-17T19:58:59.432Z,25.34
2022-08-17T20:01:51.296Z,25.30
2022-08-17T20:04:32.442Z,25.32
2022-08-17T20:07:24.326Z,25.29
2022-08-17T20:10:05.319Z,25.30
2022-08-17T20:12:38.062Z,25.34
2022-08-17T20:15:25.692Z,25.29
2022-08-17T20:17:53.024Z,25.20
2022-08-17T20:20:38.266Z,25.14
2022-08-17T20:23:19.804Z,25.04
2022-08-17T20:26:05.171Z,24.90
2022-08-17T20:28:35.268Z,24.81
2022-08-17T20:31:25.444Z,24.72
2022-08-17T20:33:55.469Z,24.52
2022-08-17T20:36:24.116Z,24.44
2022-08-17T20:38:59.779Z,24.39
2022-08-17T20:41:29.314Z,24.39
2022-08-17T20:43:59.058Z,24.39
2022-08-17T20:46:37.893Z,24.41
2022-08-17T20:49:18.349Z,24.37
2022-08-17T20:52:07.864Z,24.41
2022-08-17T20:54:55.097Z,24.39
2022-08-17T20:57:36.736Z,24.41
2022-08-17T21:00:27.592Z,24.51
2022-08-17T21:03:23.159Z,24.51
2022-08-17T21:06:17.219Z,24.51
2022-08-17T21:08:54.835Z,24.56
2022-08-17T21:12:02.765Z,24.56
2022-08-17T21:14:34.159Z,24.50
2022-08-17T21:17:26.353Z,24.42
2022-08-17T21:20:14.850Z,24.31
2022-08-17T21:23:20.751Z,24.22
2022-08-17T21:25:53.314Z,24.15
2022-08-17T21:29:01.070Z,23.98
2022-08-17T21:31:37.171Z,23.87
2022-08-17T21:34:16.223Z,23.79
2022-08-17T21:36:44.996Z,23.85
2022-08-17T21:39:14.301Z,23.80
2022-08-17T21:41:53.033Z,23.84
2022-08-17T21:44:21.602Z,23.83
2022-08-17T21:46:50.717Z,23.78
2022-08-17T21:49:25.488Z,23.69
2022-08-17T21:51:56.508Z,23.65
2022-08-17T21:54:29.859Z,23.62
2022-08-17T21:56:56.689Z,23.58
2022-08-17T21:59:27.279Z,23.41
2022-08-17T22:02:06.204Z,23.47
2022-08-17T22:04:40.276Z,23.41
2022-08-17T22:07:10.665Z,23.42
2022-08-17T22:09:46.624Z,23.37
2022-08-17T22:12:19.218Z,23.18
2022-08-17T22:14:53.026Z,23.16
2022-08-17T22:17:20.438Z,23.12
2022-08-17T22:19:55.015Z,23.05
2022-08-17T22:22:33.476Z,23.04
2022-08-17T22:25:07.301Z,23.08
2022-08-17T22:28:00.375Z,23.11
2022-08-17T22:30:31.641Z,23.12
2022-08-17T22:33:00.354Z,23.25
2022-08-17T22:35:34.704Z,23.37
2022-08-17T22:38:19.298Z,23.38
2022-08-17T22:41:13.773Z,23.25
2022-08-17T22:43:43.191Z,23.02
2022-08-17T22:46:12.112Z,22.89
2022-08-17T22:48:47.716Z,22.85
2022-08-17T22:51:19.216Z,22.80
2022-08-17T22:54:08.348Z,22.76
2022-08-17T22:56:53.760Z,22.62
2022-08-17T22:59:42.368Z,22.54
2022-08-17T23:02:24.754Z,22.40
2022-08-17T23:04:57.690Z,22.46
2022-08-17T23:07:24.466Z,22.43
2022-08-17T23:09:52.895Z,22.42
2022-08-17T23:12:26.525Z,22.41
2022-08-17T23:14:58.492Z,22.34
2022-08-17T23:17:25.123Z,22.27
2022-08-17T23:19:51.862Z,22.29
2022-08-17T23:22:18.529Z,22.31
2022-08-17T23:24:48.980Z,22.24
2022-08-17T23:27:16.378Z,22.14
2022-08-17T23:29:43.487Z,22.08
2022-08-17T23:32:14.854Z,21.94
2022-08-17T23:34:43.131Z,21.89
2022-08-17T23:37:11.538Z,21.82
2022-08-17T23:39:39.448Z,21.75
2022-08-17T23:42:10.405Z,21.68
2022-08-17T23:44:39.074Z,21.51
2022-08-17T23:47:07.758Z,21.49
2022-08-17T23:49:36.198Z,21.49
2022-08-17T23:52:07.132Z,21.49
2022-08-17T23:54:44.131Z,21.53
2022-08-17T23:57:17.176Z,21.45
2022-08-17T23:59:44.245Z,21.45
